sensor_id;sensor_type;location;lat;lon;timestamp;P1;durP1;ratioP1;P2;durP2;ratioP2
75718;SDS011;64340;48.534;-3.036;2022-11-04T00:31:54;5.38;;;2.03;;
75718;SDS011;64340;48.534;-3.036;2022-11-04T00:34:39;4.47;;;1.67;;
75718;SDS011;64340;48.534;-3.036;2022-11-04T00:37:04;4.90;;;1.60;;
75718;SDS011;64340;48.534;-3.036;2022-11-04T00:49:13;4.07;;;1.70;;
75718;SDS011;64340;48.534;-3.036;2022-11-04T00:51:38;3.60;;;1.60;;
75718;SDS011;64340;48.534;-3.036;2022-11-04T00:54:04;4.72;;;1.63;;
75718;SDS011;64340;48.534;-3.036;2022-11-04T00:56:30;4.32;;;1.40;;
75718;SDS011;64340;48.534;-3.036;2022-11-04T00:58:57;3.53;;;1.38;;
75718;SDS011;64340;48.534;-3.036;2022-11-04T01:01:24;3.22;;;1.35;;
75718;SDS011;64340;48.534;-3.036;2022-11-04T01:03:50;3.30;;;1.48;;
75718;SDS011;64340;48.534;-3.036;2022-11-04T01:06:18;3.03;;;1.20;;
75718;SDS011;64340;48.534;-3.036;2022-11-04T01:08:46;4.50;;;1.77;;
75718;SDS011;64340;48.534;-3.036;2022-11-04T01:11:12;3.15;;;1.40;;
75718;SDS011;64340;48.534;-3.036;2022-11-04T01:13:39;3.42;;;1.42;;
75718;SDS011;64340;48.534;-3.036;2022-11-04T01:16:06;4.10;;;1.20;;
75718;SDS011;64340;48.534;-3.036;2022-11-04T01:18:34;2.55;;;1.10;;
75718;SDS011;64340;48.534;-3.036;2022-11-04T01:21:00;4.30;;;1.40;;
75718;SDS011;64340;48.534;-3.036;2022-11-04T01:23:30;3.75;;;1.40;;
75718;SDS011;64340;48.534;-3.036;2022-11-04T01:25:58;4.57;;;1.20;;
75718;SDS011;64340;48.534;-3.036;2022-11-04T01:28:24;3.35;;;1.30;;
75718;SDS011;64340;48.534;-3.036;2022-11-04T01:30:50;5.38;;;1.85;;
75718;SDS011;64340;48.534;-3.036;2022-11-04T01:33:15;2.83;;;1.10;;
75718;SDS011;64340;48.534;-3.036;2022-11-04T01:35:41;3.53;;;1.27;;
75718;SDS011;64340;48.534;-3.036;2022-11-04T01:38:07;3.65;;;1.13;;
75718;SDS011;64340;48.534;-3.036;2022-11-04T01:40:37;3.50;;;1.10;;
75718;SDS011;64340;48.534;-3.036;2022-11-04T01:43:14;2.75;;;1.30;;
75718;SDS011;64340;48.534;-3.036;2022-11-04T01:45:42;2.72;;;0.98;;
75718;SDS011;64340;48.534;-3.036;2022-11-04T01:48:12;3.30;;;1.27;;
75718;SDS011;64340;48.534;-3.036;2022-11-04T01:50:46;3.47;;;1.38;;
75718;SDS011;64340;48.534;-3.036;2022-11-04T01:53:18;3.65;;;1.42;;
75718;SDS011;64340;48.534;-3.036;2022-11-04T01:55:55;3.08;;;1.00;;
75718;SDS011;64340;48.534;-3.036;2022-11-04T01:58:23;3.40;;;1.33;;
75718;SDS011;64340;48.534;-3.036;2022-11-04T02:00:52;3.22;;;1.30;;
75718;SDS011;64340;48.534;-3.036;2022-11-04T02:03:19;2.95;;;1.10;;
75718;SDS011;64340;48.534;-3.036;2022-11-04T02:05:45;2.63;;;1.10;;
75718;SDS011;64340;48.534;-3.036;2022-11-04T02:08:13;2.20;;;1.00;;
75718;SDS011;64340;48.534;-3.036;2022-11-04T02:10:41;3.92;;;1.48;;
75718;SDS011;64340;48.534;-3.036;2022-11-04T02:13:18;3.50;;;1.10;;
75718;SDS011;64340;48.534;-3.036;2022-11-04T02:30:23;2.15;;;1.00;;
75718;SDS011;64340;48.534;-3.036;2022-11-04T02:35:39;2.78;;;0.80;;
75718;SDS011;64340;48.534;-3.036;2022-11-04T02:46:45;1.85;;;0.70;;
75718;SDS011;64340;48.534;-3.036;2022-11-04T02:49:18;1.60;;;0.68;;
75718;SDS011;64340;48.534;-3.036;2022-11-04T02:51:52;2.60;;;1.20;;
75718;SDS011;64340;48.534;-3.036;2022-11-04T02:56:53;3.05;;;1.17;;
75718;SDS011;64340;48.534;-3.036;2022-11-04T02:59:28;3.40;;;0.80;;
75718;SDS011;64340;48.534;-3.036;2022-11-04T03:02:00;2.70;;;1.10;;
75718;SDS011;64340;48.534;-3.036;2022-11-04T03:04:32;2.53;;;1.00;;
75718;SDS011;64340;48.534;-3.036;2022-11-04T03:07:04;2.60;;;1.10;;
75718;SDS011;64340;48.534;-3.036;2022-11-04T03:09:34;2.03;;;0.90;;
75718;SDS011;64340;48.534;-3.036;2022-11-04T03:12:03;3.17;;;1.00;;
75718;SDS011;64340;48.534;-3.036;2022-11-04T03:14:40;2.40;;;1.00;;
75718;SDS011;64340;48.534;-3.036;2022-11-04T03:17:18;2.15;;;0.88;;
75718;SDS011;64340;48.534;-3.036;2022-11-04T03:19:53;2.08;;;0.80;;
75718;SDS011;64340;48.534;-3.036;2022-11-04T03:22:33;3.35;;;1.13;;
75718;SDS011;64340;48.534;-3.036;2022-11-04T03:25:02;2.03;;;0.90;;
75718;SDS011;64340;48.534;-3.036;2022-11-04T03:29:57;2.25;;;1.00;;
75718;SDS011;64340;48.534;-3.036;2022-11-04T03:32:45;1.98;;;0.80;;
75718;SDS011;64340;48.534;-3.036;2022-11-04T03:35:29;3.65;;;1.15;;
75718;SDS011;64340;48.534;-3.036;2022-11-04T03:37:55;2.63;;;0.90;;
75718;SDS011;64340;48.534;-3.036;2022-11-04T03:40:22;1.42;;;0.68;;
75718;SDS011;64340;48.534;-3.036;2022-11-04T03:42:51;2.40;;;0.75;;
75718;SDS011;64340;48.534;-3.036;2022-11-04T03:45:22;3.05;;;1.00;;
75718;SDS011;64340;48.534;-3.036;2022-11-04T03:47:49;2.75;;;0.82;;
75718;SDS011;64340;48.534;-3.036;2022-11-04T03:50:32;2.35;;;0.80;;
75718;SDS011;64340;48.534;-3.036;2022-11-04T03:53:04;2.17;;;0.55;;
75718;SDS011;64340;48.534;-3.036;2022-11-04T03:55:36;2.10;;;0.70;;
75718;SDS011;64340;48.534;-3.036;2022-11-04T03:58:23;1.80;;;0.60;;
75718;SDS011;64340;48.534;-3.036;2022-11-04T04:01:16;2.28;;;0.80;;
75718;SDS011;64340;48.534;-3.036;2022-11-04T04:07:14;2.55;;;0.90;;
75718;SDS011;64340;48.534;-3.036;2022-11-04T04:10:00;2.90;;;1.13;;
75718;SDS011;64340;48.534;-3.036;2022-11-04T04:12:55;3.10;;;1.15;;
75718;SDS011;64340;48.534;-3.036;2022-11-04T04:15:29;1.50;;;0.70;;
75718;SDS011;64340;48.534;-3.036;2022-11-04T04:18:07;2.30;;;0.85;;
75718;SDS011;64340;48.534;-3.036;2022-11-04T04:20:36;4.00;;;0.70;;
75718;SDS011;64340;48.534;-3.036;2022-11-04T04:23:07;2.35;;;0.80;;
75718;SDS011;64340;48.534;-3.036;2022-11-04T04:25:58;1.88;;;0.73;;
75718;SDS011;64340;48.534;-3.036;2022-11-04T04:28:47;1.95;;;0.85;;
75718;SDS011;64340;48.534;-3.036;2022-11-04T04:31:16;2.35;;;0.90;;
75718;SDS011;64340;48.534;-3.036;2022-11-04T04:34:03;2.42;;;0.80;;
75718;SDS011;64340;48.534;-3.036;2022-11-04T04:36:30;1.83;;;0.65;;
75718;SDS011;64340;48.534;-3.036;2022-11-04T04:39:03;2.13;;;1.00;;
75718;SDS011;64340;48.534;-3.036;2022-11-04T04:41:49;1.17;;;0.50;;
75718;SDS011;64340;48.534;-3.036;2022-11-04T04:44:35;2.67;;;0.70;;
75718;SDS011;64340;48.534;-3.036;2022-11-04T04:47:20;3.22;;;0.90;;
75718;SDS011;64340;48.534;-3.036;2022-11-04T04:49:49;1.73;;;0.70;;
75718;SDS011;64340;48.534;-3.036;2022-11-04T04:52:19;1.90;;;0.82;;
75718;SDS011;64340;48.534;-3.036;2022-11-04T04:54:46;1.33;;;0.50;;
75718;SDS011;64340;48.534;-3.036;2022-11-04T04:57:11;2.17;;;0.75;;
75718;SDS011;64340;48.534;-3.036;2022-11-04T04:59:37;3.03;;;0.77;;
75718;SDS011;64340;48.534;-3.036;2022-11-04T05:02:03;2.03;;;0.60;;
75718;SDS011;64340;48.534;-3.036;2022-11-04T05:04:29;1.70;;;0.60;;
75718;SDS011;64340;48.534;-3.036;2022-11-04T05:06:55;2.40;;;0.73;;
75718;SDS011;64340;48.534;-3.036;2022-11-04T05:09:20;2.20;;;0.80;;
75718;SDS011;64340;48.534;-3.036;2022-11-04T05:11:46;2.65;;;0.65;;
75718;SDS011;64340;48.534;-3.036;2022-11-04T05:14:12;2.25;;;0.70;;
75718;SDS011;64340;48.534;-3.036;2022-11-04T05:16:39;1.92;;;0.70;;
75718;SDS011;64340;48.534;-3.036;2022-11-04T05:19:04;2.35;;;0.70;;
75718;SDS011;64340;48.534;-3.036;2022-11-04T05:21:30;2.05;;;0.70;;
75718;SDS011;64340;48.534;-3.036;2022-11-04T05:23:56;1.85;;;0.82;;
75718;SDS011;64340;48.534;-3.036;2022-11-04T05:26:21;2.05;;;0.70;;
75718;SDS011;64340;48.534;-3.036;2022-11-04T05:28:47;1.98;;;0.77;;
75718;SDS011;64340;48.534;-3.036;2022-11-04T05:31:13;1.50;;;0.63;;
75718;SDS011;64340;48.534;-3.036;2022-11-04T05:33:39;1.80;;;0.85;;
75718;SDS011;64340;48.534;-3.036;2022-11-04T05:36:12;2.28;;;0.73;;
75718;SDS011;64340;48.534;-3.036;2022-11-04T05:38:40;1.25;;;0.60;;
75718;SDS011;64340;48.534;-3.036;2022-11-04T05:41:07;1.90;;;0.60;;
75718;SDS011;64340;48.534;-3.036;2022-11-04T05:43:35;1.77;;;0.60;;
75718;SDS011;64340;48.534;-3.036;2022-11-04T05:46:01;1.65;;;0.73;;
75718;SDS011;64340;48.534;-3.036;2022-11-04T05:48:27;1.73;;;0.75;;
75718;SDS011;64340;48.534;-3.036;2022-11-04T05:50:54;1.90;;;0.60;;
75718;SDS011;64340;48.534;-3.036;2022-11-04T05:53:20;1.98;;;0.50;;
75718;SDS011;64340;48.534;-3.036;2022-11-04T05:55:46;2.10;;;0.80;;
75718;SDS011;64340;48.534;-3.036;2022-11-04T05:58:12;2.22;;;0.60;;
75718;SDS011;64340;48.534;-3.036;2022-11-04T06:00:38;2.35;;;0.60;;
75718;SDS011;64340;48.534;-3.036;2022-11-04T06:03:04;1.27;;;0.57;;
75718;SDS011;64340;48.534;-3.036;2022-11-04T06:05:29;2.30;;;0.70;;
75718;SDS011;64340;48.534;-3.036;2022-11-04T06:07:56;1.02;;;0.43;;
75718;SDS011;64340;48.534;-3.036;2022-11-04T06:10:22;1.45;;;0.70;;
75718;SDS011;64340;48.534;-3.036;2022-11-04T06:12:48;1.17;;;0.80;;
75718;SDS011;64340;48.534;-3.036;2022-11-04T06:15:14;1.67;;;0.65;;
75718;SDS011;64340;48.534;-3.036;2022-11-04T06:17:39;1.85;;;0.80;;
75718;SDS011;64340;48.534;-3.036;2022-11-04T06:20:05;1.73;;;0.60;;
75718;SDS011;64340;48.534;-3.036;2022-11-04T06:22:31;1.70;;;0.50;;
75718;SDS011;64340;48.534;-3.036;2022-11-04T06:24:57;2.30;;;0.68;;
75718;SDS011;64340;48.534;-3.036;2022-11-04T06:27:23;1.80;;;0.70;;
75718;SDS011;64340;48.534;-3.036;2022-11-04T06:29:49;1.35;;;0.47;;
75718;SDS011;64340;48.534;-3.036;2022-11-04T06:32:17;1.88;;;0.63;;
75718;SDS011;64340;48.534;-3.036;2022-11-04T06:34:43;2.25;;;0.75;;
75718;SDS011;64340;48.534;-3.036;2022-11-04T06:37:09;1.15;;;0.50;;
75718;SDS011;64340;48.534;-3.036;2022-11-04T06:39:35;2.63;;;0.80;;
75718;SDS011;64340;48.534;-3.036;2022-11-04T06:42:01;1.95;;;0.65;;
75718;SDS011;64340;48.534;-3.036;2022-11-04T06:44:27;2.65;;;0.65;;
75718;SDS011;64340;48.534;-3.036;2022-11-04T06:46:53;1.20;;;0.50;;
75718;SDS011;64340;48.534;-3.036;2022-11-04T06:49:20;1.20;;;0.50;;
75718;SDS011;64340;48.534;-3.036;2022-11-04T06:51:47;1.00;;;0.40;;
75718;SDS011;64340;48.534;-3.036;2022-11-04T06:54:14;1.42;;;0.50;;
75718;SDS011;64340;48.534;-3.036;2022-11-04T06:56:41;1.63;;;0.65;;
75718;SDS011;64340;48.534;-3.036;2022-11-04T06:59:15;1.20;;;0.47;;
75718;SDS011;64340;48.534;-3.036;2022-11-04T07:01:43;1.67;;;0.45;;
75718;SDS011;64340;48.534;-3.036;2022-11-04T07:04:09;1.13;;;0.55;;
75718;SDS011;64340;48.534;-3.036;2022-11-04T07:06:35;1.27;;;0.40;;
75718;SDS011;64340;48.534;-3.036;2022-11-04T07:09:00;1.00;;;0.40;;
75718;SDS011;64340;48.534;-3.036;2022-11-04T07:11:27;0.95;;;0.40;;
75718;SDS011;64340;48.534;-3.036;2022-11-04T07:13:55;1.65;;;0.40;;
75718;SDS011;64340;48.534;-3.036;2022-11-04T07:16:21;1.48;;;0.50;;
75718;SDS011;64340;48.534;-3.036;2022-11-04T07:18:47;1.45;;;0.65;;
75718;SDS011;64340;48.534;-3.036;2022-11-04T07:21:14;1.30;;;0.57;;
75718;SDS011;64340;48.534;-3.036;2022-11-04T07:23:40;1.48;;;0.40;;
75718;SDS011;64340;48.534;-3.036;2022-11-04T07:26:07;1.20;;;0.40;;
75718;SDS011;64340;48.534;-3.036;2022-11-04T07:28:35;0.88;;;0.50;;
75718;SDS011;64340;48.534;-3.036;2022-11-04T07:31:03;1.60;;;0.65;;
75718;SDS011;64340;48.534;-3.036;2022-11-04T07:33:30;1.77;;;0.40;;
75718;SDS011;64340;48.534;-3.036;2022-11-04T07:35:57;1.42;;;0.50;;
75718;SDS011;64340;48.534;-3.036;2022-11-04T07:38:26;1.15;;;0.50;;
75718;SDS011;64340;48.534;-3.036;2022-11-04T07:40:52;1.13;;;0.50;;
75718;SDS011;64340;48.534;-3.036;2022-11-04T07:43:18;1.40;;;0.47;;
75718;SDS011;64340;48.534;-3.036;2022-11-04T07:45:43;0.57;;;0.40;;
75718;SDS011;64340;48.534;-3.036;2022-11-04T07:48:09;1.58;;;0.60;;
75718;SDS011;64340;48.534;-3.036;2022-11-04T07:50:37;1.52;;;0.50;;
75718;SDS011;64340;48.534;-3.036;2022-11-04T07:53:04;2.00;;;0.50;;
75718;SDS011;64340;48.534;-3.036;2022-11-04T07:55:30;1.65;;;0.40;;
75718;SDS011;64340;48.534;-3.036;2022-11-04T07:57:55;1.42;;;0.50;;
75718;SDS011;64340;48.534;-3.036;2022-11-04T08:00:21;1.05;;;0.40;;
75718;SDS011;64340;48.534;-3.036;2022-11-04T08:02:47;0.63;;;0.30;;
75718;SDS011;64340;48.534;-3.036;2022-11-04T08:05:13;1.20;;;0.45;;
75718;SDS011;64340;48.534;-3.036;2022-11-04T08:07:39;1.08;;;0.40;;
75718;SDS011;64340;48.534;-3.036;2022-11-04T08:10:05;2.83;;;0.90;;
75718;SDS011;64340;48.534;-3.036;2022-11-04T08:12:31;1.55;;;0.40;;
75718;SDS011;64340;48.534;-3.036;2022-11-04T08:14:58;1.17;;;0.32;;
75718;SDS011;64340;48.534;-3.036;2022-11-04T08:17:24;1.42;;;0.50;;
75718;SDS011;64340;48.534;-3.036;2022-11-04T08:19:50;1.05;;;0.30;;
75718;SDS011;64340;48.534;-3.036;2022-11-04T08:22:16;1.15;;;0.50;;
75718;SDS011;64340;48.534;-3.036;2022-11-04T08:24:42;1.38;;;0.60;;
75718;SDS011;64340;48.534;-3.036;2022-11-04T08:27:11;1.55;;;0.60;;
75718;SDS011;64340;48.534;-3.036;2022-11-04T08:29:37;1.38;;;0.50;;
75718;SDS011;64340;48.534;-3.036;2022-11-04T08:32:03;1.92;;;0.60;;
75718;SDS011;64340;48.534;-3.036;2022-11-04T08:34:29;1.35;;;0.43;;
75718;SDS011;64340;48.534;-3.036;2022-11-04T08:36:55;1.80;;;0.50;;
75718;SDS011;64340;48.534;-3.036;2022-11-04T08:39:24;3.80;;;1.30;;
75718;SDS011;64340;48.534;-3.036;2022-11-04T08:41:50;4.45;;;1.30;;
75718;SDS011;64340;48.534;-3.036;2022-11-04T08:44:17;9.63;;;2.22;;
75718;SDS011;64340;48.534;-3.036;2022-11-04T08:46:44;10.18;;;2.33;;
75718;SDS011;64340;48.534;-3.036;2022-11-04T08:49:11;7.70;;;1.88;;
75718;SDS011;64340;48.534;-3.036;2022-11-04T08:51:38;5.68;;;2.33;;
75718;SDS011;64340;48.534;-3.036;2022-11-04T08:54:06;8.18;;;1.88;;
75718;SDS011;64340;48.534;-3.036;2022-11-04T08:56:36;8.60;;;1.95;;
75718;SDS011;64340;48.534;-3.036;2022-11-04T08:59:04;5.90;;;1.88;;
75718;SDS011;64340;48.534;-3.036;2022-11-04T09:01:32;5.57;;;1.92;;
75718;SDS011;64340;48.534;-3.036;2022-11-04T09:04:00;6.95;;;1.50;;
75718;SDS011;64340;48.534;-3.036;2022-11-04T09:06:29;4.57;;;1.38;;
75718;SDS011;64340;48.534;-3.036;2022-11-04T09:08:58;5.75;;;1.40;;
75718;SDS011;64340;48.534;-3.036;2022-11-04T09:11:28;8.38;;;1.75;;
75718;SDS011;64340;48.534;-3.036;2022-11-04T09:13:57;4.78;;;1.73;;
75718;SDS011;64340;48.534;-3.036;2022-11-04T09:16:26;6.90;;;1.40;;
75718;SDS011;64340;48.534;-3.036;2022-11-04T09:18:53;4.25;;;1.33;;
75718;SDS011;64340;48.534;-3.036;2022-11-04T09:21:20;5.57;;;1.80;;
75718;SDS011;64340;48.534;-3.036;2022-11-04T09:23:47;9.23;;;1.65;;
75718;SDS011;64340;48.534;-3.036;2022-11-04T09:26:14;5.85;;;1.65;;
75718;SDS011;64340;48.534;-3.036;2022-11-04T09:28:41;7.38;;;1.67;;
75718;SDS011;64340;48.534;-3.036;2022-11-04T09:31:08;8.00;;;1.55;;
75718;SDS011;64340;48.534;-3.036;2022-11-04T09:58:11;8.43;;;2.75;;
75718;SDS011;64340;48.534;-3.036;2022-11-04T10:00:38;11.20;;;3.72;;
75718;SDS011;64340;48.534;-3.036;2022-11-04T10:21:54;13.95;;;5.90;;
75718;SDS011;64340;48.534;-3.036;2022-11-04T10:26:57;12.75;;;5.43;;
75718;SDS011;64340;48.534;-3.036;2022-11-04T10:29:37;12.60;;;4.93;;
75718;SDS011;64340;48.534;-3.036;2022-11-04T10:32:13;10.65;;;4.88;;
75718;SDS011;64340;48.534;-3.036;2022-11-04T10:34:56;11.23;;;5.22;;
75718;SDS011;64340;48.534;-3.036;2022-11-04T10:37:26;9.90;;;5.10;;
75718;SDS011;64340;48.534;-3.036;2022-11-04T12:38:27;5.97;;;1.20;;
75718;SDS011;64340;48.534;-3.036;2022-11-04T12:43:36;4.20;;;0.82;;
75718;SDS011;64340;48.534;-3.036;2022-11-04T12:46:37;3.95;;;1.20;;
75718;SDS011;64340;48.534;-3.036;2022-11-04T12:49:39;3.60;;;1.00;;
75718;SDS011;64340;48.534;-3.036;2022-11-04T12:58:09;5.43;;;0.82;;
75718;SDS011;64340;48.534;-3.036;2022-11-04T13:00:39;4.72;;;1.00;;
75718;SDS011;64340;48.534;-3.036;2022-11-04T13:03:10;4.57;;;1.08;;
75718;SDS011;64340;48.534;-3.036;2022-11-04T13:05:48;4.38;;;1.02;;
75718;SDS011;64340;48.534;-3.036;2022-11-04T13:08:20;4.55;;;1.17;;
75718;SDS011;64340;48.534;-3.036;2022-11-04T13:11:05;8.10;;;1.23;;
75718;SDS011;64340;48.534;-3.036;2022-11-04T13:16:43;5.38;;;1.25;;
75718;SDS011;64340;48.534;-3.036;2022-11-04T13:19:24;4.35;;;1.10;;
75718;SDS011;64340;48.534;-3.036;2022-11-04T13:22:07;3.28;;;0.85;;
75718;SDS011;64340;48.534;-3.036;2022-11-04T13:24:37;4.43;;;1.05;;
75718;SDS011;64340;48.534;-3.036;2022-11-04T13:27:21;4.72;;;1.20;;
75718;SDS011;64340;48.534;-3.036;2022-11-04T13:29:53;5.35;;;0.93;;
75718;SDS011;64340;48.534;-3.036;2022-11-04T13:32:32;6.25;;;1.00;;
75718;SDS011;64340;48.534;-3.036;2022-11-04T13:35:13;3.95;;;1.00;;
75718;SDS011;64340;48.534;-3.036;2022-11-04T13:38:27;4.80;;;1.42;;
75718;SDS011;64340;48.534;-3.036;2022-11-04T13:41:21;7.53;;;1.27;;
75718;SDS011;64340;48.534;-3.036;2022-11-04T13:43:34;3.42;;;1.35;;
75718;SDS011;64340;48.534;-3.036;2022-11-04T13:46:02;5.35;;;1.00;;
75718;SDS011;64340;48.534;-3.036;2022-11-04T13:48:35;4.80;;;1.08;;
75718;SDS011;64340;48.534;-3.036;2022-11-04T13:51:13;3.67;;;0.98;;
75718;SDS011;64340;48.534;-3.036;2022-11-04T13:53:46;4.40;;;1.38;;
75718;SDS011;64340;48.534;-3.036;2022-11-04T14:01:32;4.15;;;1.00;;
75718;SDS011;64340;48.534;-3.036;2022-11-04T14:04:44;7.53;;;1.23;;
75718;SDS011;64340;48.534;-3.036;2022-11-04T14:06:59;8.38;;;1.10;;
75718;SDS011;64340;48.534;-3.036;2022-11-04T14:22:28;6.72;;;1.20;;
75718;SDS011;64340;48.534;-3.036;2022-11-04T14:25:17;3.53;;;1.20;;
75718;SDS011;64340;48.534;-3.036;2022-11-04T14:27:50;3.65;;;1.00;;
75718;SDS011;64340;48.534;-3.036;2022-11-04T14:35:48;6.97;;;1.13;;
75718;SDS011;64340;48.534;-3.036;2022-11-04T14:38:23;6.93;;;1.33;;
75718;SDS011;64340;48.534;-3.036;2022-11-04T14:40:51;5.25;;;1.10;;
75718;SDS011;64340;48.534;-3.036;2022-11-04T14:43:42;4.32;;;0.80;;
75718;SDS011;64340;48.534;-3.036;2022-11-04T14:46:10;4.53;;;1.20;;
75718;SDS011;64340;48.534;-3.036;2022-11-04T14:48:42;4.53;;;0.93;;
75718;SDS011;64340;48.534;-3.036;2022-11-04T14:51:33;4.85;;;0.95;;
75718;SDS011;64340;48.534;-3.036;2022-11-04T14:54:05;5.32;;;1.30;;
75718;SDS011;64340;48.534;-3.036;2022-11-04T14:56:37;3.97;;;0.98;;
75718;SDS011;64340;48.534;-3.036;2022-11-04T14:59:05;4.85;;;0.98;;
75718;SDS011;64340;48.534;-3.036;2022-11-04T15:01:33;8.00;;;1.52;;
75718;SDS011;64340;48.534;-3.036;2022-11-04T15:04:15;9.40;;;1.73;;
75718;SDS011;64340;48.534;-3.036;2022-11-04T15:07:02;7.05;;;2.35;;
75718;SDS011;64340;48.534;-3.036;2022-11-04T15:09:48;9.20;;;2.45;;
75718;SDS011;64340;48.534;-3.036;2022-11-04T15:12:16;7.50;;;1.92;;
75718;SDS011;64340;48.534;-3.036;2022-11-04T15:15:22;7.47;;;2.00;;
75718;SDS011;64340;48.534;-3.036;2022-11-04T15:17:50;5.43;;;1.88;;
75718;SDS011;64340;48.534;-3.036;2022-11-04T15:20:22;8.55;;;1.50;;
75718;SDS011;64340;48.534;-3.036;2022-11-04T15:22:50;8.65;;;1.85;;
75718;SDS011;64340;48.534;-3.036;2022-11-04T15:25:17;8.77;;;3.25;;
75718;SDS011;64340;48.534;-3.036;2022-11-04T15:27:43;12.40;;;2.78;;
75718;SDS011;64340;48.534;-3.036;2022-11-04T15:30:23;9.68;;;2.13;;
75718;SDS011;64340;48.534;-3.036;2022-11-04T15:32:52;11.95;;;2.92;;
75718;SDS011;64340;48.534;-3.036;2022-11-04T15:35:20;10.55;;;3.00;;
75718;SDS011;64340;48.534;-3.036;2022-11-04T15:37:47;7.35;;;2.80;;
75718;SDS011;64340;48.534;-3.036;2022-11-04T15:40:13;17.90;;;6.75;;
75718;SDS011;64340;48.534;-3.036;2022-11-04T15:42:41;10.73;;;3.70;;
75718;SDS011;64340;48.534;-3.036;2022-11-04T15:53:49;8.82;;;2.53;;
75718;SDS011;64340;48.534;-3.036;2022-11-04T15:56:28;7.85;;;2.60;;
75718;SDS011;64340;48.534;-3.036;2022-11-04T15:58:57;10.50;;;3.50;;
75718;SDS011;64340;48.534;-3.036;2022-11-04T16:01:24;9.45;;;3.53;;
75718;SDS011;64340;48.534;-3.036;2022-11-04T16:03:56;8.85;;;3.22;;
75718;SDS011;64340;48.534;-3.036;2022-11-04T16:06:38;11.32;;;3.47;;
75718;SDS011;64340;48.534;-3.036;2022-11-04T16:11:39;9.57;;;3.47;;
75718;SDS011;64340;48.534;-3.036;2022-11-04T16:17:00;8.38;;;3.35;;
75718;SDS011;64340;48.534;-3.036;2022-11-04T16:19:26;6.78;;;3.00;;
75718;SDS011;64340;48.534;-3.036;2022-11-04T16:22:12;9.73;;;2.90;;
75718;SDS011;64340;48.534;-3.036;2022-11-04T16:24:44;7.97;;;2.78;;
75718;SDS011;64340;48.534;-3.036;2022-11-04T16:27:15;6.10;;;2.72;;
75718;SDS011;64340;48.534;-3.036;2022-11-04T16:29:49;7.60;;;2.45;;
75718;SDS011;64340;48.534;-3.036;2022-11-04T16:32:18;6.85;;;2.65;;
75718;SDS011;64340;48.534;-3.036;2022-11-04T16:34:47;8.98;;;2.78;;
75718;SDS011;64340;48.534;-3.036;2022-11-04T16:37:15;8.40;;;3.03;;
75718;SDS011;64340;48.534;-3.036;2022-11-04T16:39:42;6.82;;;3.00;;
75718;SDS011;64340;48.534;-3.036;2022-11-04T16:42:10;7.00;;;2.42;;
75718;SDS011;64340;48.534;-3.036;2022-11-04T16:47:04;8.75;;;2.75;;
75718;SDS011;64340;48.534;-3.036;2022-11-04T16:49:30;10.13;;;2.50;;
75718;SDS011;64340;48.534;-3.036;2022-11-04T16:51:59;8.38;;;2.78;;
75718;SDS011;64340;48.534;-3.036;2022-11-04T16:54:27;11.88;;;3.03;;
75718;SDS011;64340;48.534;-3.036;2022-11-04T16:56:54;10.73;;;2.67;;
75718;SDS011;64340;48.534;-3.036;2022-11-04T16:59:20;6.70;;;2.60;;
75718;SDS011;64340;48.534;-3.036;2022-11-04T17:01:47;10.77;;;2.55;;
75718;SDS011;64340;48.534;-3.036;2022-11-04T17:04:13;8.32;;;2.63;;
75718;SDS011;64340;48.534;-3.036;2022-11-04T17:06:39;7.32;;;2.33;;
75718;SDS011;64340;48.534;-3.036;2022-11-04T17:09:09;6.25;;;2.63;;
75718;SDS011;64340;48.534;-3.036;2022-11-04T17:11:45;6.43;;;2.10;;
75718;SDS011;64340;48.534;-3.036;2022-11-04T17:14:12;9.20;;;2.35;;
75718;SDS011;64340;48.534;-3.036;2022-11-04T17:16:38;7.95;;;2.58;;
75718;SDS011;64340;48.534;-3.036;2022-11-04T17:19:03;6.63;;;2.05;;
75718;SDS011;64340;48.534;-3.036;2022-11-04T17:21:29;4.93;;;1.80;;
75718;SDS011;64340;48.534;-3.036;2022-11-04T17:23:55;9.57;;;3.17;;
75718;SDS011;64340;48.534;-3.036;2022-11-04T17:26:21;10.43;;;3.08;;
75718;SDS011;64340;48.534;-3.036;2022-11-04T17:28:47;9.18;;;2.90;;
75718;SDS011;64340;48.534;-3.036;2022-11-04T17:31:19;7.00;;;3.00;;
75718;SDS011;64340;48.534;-3.036;2022-11-04T17:33:45;7.13;;;2.60;;
75718;SDS011;64340;48.534;-3.036;2022-11-04T17:36:14;7.25;;;2.58;;
75718;SDS011;64340;48.534;-3.036;2022-11-04T17:38:42;10.73;;;3.20;;
75718;SDS011;64340;48.534;-3.036;2022-11-04T17:41:08;8.50;;;2.70;;
75718;SDS011;64340;48.534;-3.036;2022-11-04T17:43:52;8.15;;;2.28;;
75718;SDS011;64340;48.534;-3.036;2022-11-04T17:46:24;6.63;;;2.25;;
75718;SDS011;64340;48.534;-3.036;2022-11-04T17:49:06;9.02;;;2.63;;
75718;SDS011;64340;48.534;-3.036;2022-11-04T17:51:36;7.75;;;2.85;;
75718;SDS011;64340;48.534;-3.036;2022-11-04T17:54:03;6.57;;;2.35;;
75718;SDS011;64340;48.534;-3.036;2022-11-04T17:56:30;8.40;;;2.78;;
75718;SDS011;64340;48.534;-3.036;2022-11-04T17:58:59;10.85;;;3.47;;
75718;SDS011;64340;48.534;-3.036;2022-11-04T18:01:28;8.90;;;3.58;;
75718;SDS011;64340;48.534;-3.036;2022-11-04T18:03:55;11.65;;;5.60;;
75718;SDS011;64340;48.534;-3.036;2022-11-04T18:06:22;11.75;;;5.60;;
75718;SDS011;64340;48.534;-3.036;2022-11-04T18:08:53;13.15;;;5.32;;
75718;SDS011;64340;48.534;-3.036;2022-11-04T18:11:20;11.60;;;5.05;;
75718;SDS011;64340;48.534;-3.036;2022-11-04T18:14:06;17.73;;;5.60;;
75718;SDS011;64340;48.534;-3.036;2022-11-04T18:16:31;12.02;;;4.72;;
75718;SDS011;64340;48.534;-3.036;2022-11-04T18:18:58;9.85;;;4.82;;
75718;SDS011;64340;48.534;-3.036;2022-11-04T18:21:24;14.60;;;4.18;;
75718;SDS011;64340;48.534;-3.036;2022-11-04T18:23:53;11.77;;;4.25;;
75718;SDS011;64340;48.534;-3.036;2022-11-04T18:26:20;11.50;;;4.57;;
75718;SDS011;64340;48.534;-3.036;2022-11-04T18:28:45;12.73;;;4.28;;
75718;SDS011;64340;48.534;-3.036;2022-11-04T18:31:23;8.65;;;4.18;;
75718;SDS011;64340;48.534;-3.036;2022-11-04T18:33:51;10.50;;;4.13;;
75718;SDS011;64340;48.534;-3.036;2022-11-04T18:36:17;9.82;;;3.92;;
75718;SDS011;64340;48.534;-3.036;2022-11-04T18:38:43;10.40;;;4.18;;
75718;SDS011;64340;48.534;-3.036;2022-11-04T18:41:09;8.68;;;3.67;;
75718;SDS011;64340;48.534;-3.036;2022-11-04T18:43:35;9.32;;;3.53;;
75718;SDS011;64340;48.534;-3.036;2022-11-04T18:46:11;10.07;;;3.25;;
75718;SDS011;64340;48.534;-3.036;2022-11-04T18:48:38;9.55;;;3.50;;
75718;SDS011;64340;48.534;-3.036;2022-11-04T18:51:06;10.18;;;3.78;;
75718;SDS011;64340;48.534;-3.036;2022-11-04T18:53:35;9.07;;;3.30;;
75718;SDS011;64340;48.534;-3.036;2022-11-04T18:56:03;11.02;;;4.07;;
75718;SDS011;64340;48.534;-3.036;2022-11-04T18:58:31;14.60;;;4.00;;
75718;SDS011;64340;48.534;-3.036;2022-11-04T19:00:58;10.50;;;3.88;;
75718;SDS011;64340;48.534;-3.036;2022-11-04T19:03:29;9.73;;;4.07;;
75718;SDS011;64340;48.534;-3.036;2022-11-04T19:05:55;12.45;;;4.43;;
75718;SDS011;64340;48.534;-3.036;2022-11-04T19:08:20;10.13;;;3.97;;
75718;SDS011;64340;48.534;-3.036;2022-11-04T19:10:46;12.27;;;3.75;;
75718;SDS011;64340;48.534;-3.036;2022-11-04T19:13:12;9.93;;;3.53;;
75718;SDS011;64340;48.534;-3.036;2022-11-04T19:15:44;9.63;;;3.70;;
75718;SDS011;64340;48.534;-3.036;2022-11-04T19:18:12;10.48;;;4.05;;
75718;SDS011;64340;48.534;-3.036;2022-11-04T19:20:42;8.43;;;3.47;;
75718;SDS011;64340;48.534;-3.036;2022-11-04T19:23:08;8.40;;;3.35;;
75718;SDS011;64340;48.534;-3.036;2022-11-04T19:25:38;7.90;;;3.40;;
75718;SDS011;64340;48.534;-3.036;2022-11-04T19:28:06;9.02;;;3.50;;
75718;SDS011;64340;48.534;-3.036;2022-11-04T19:30:33;7.88;;;3.40;;
75718;SDS011;64340;48.534;-3.036;2022-11-04T19:32:59;9.13;;;3.35;;
75718;SDS011;64340;48.534;-3.036;2022-11-04T19:35:25;6.35;;;3.22;;
75718;SDS011;64340;48.534;-3.036;2022-11-04T19:37:51;6.03;;;3.05;;
75718;SDS011;64340;48.534;-3.036;2022-11-04T19:40:17;7.60;;;2.75;;
75718;SDS011;64340;48.534;-3.036;2022-11-04T19:42:44;8.68;;;3.15;;